sensor_id;sensor_type;location;lat;lon;timestamp;pressure;altitude;pressure_sealevel;temperature;humidity
18819;BME280;9537;45.594;9.294;2023-03-18T00:00:58;99937.63;;;6.97;63.14
18819;BME280;9537;45.594;9.294;2023-03-18T00:02:01;99940.41;;;6.96;62.58
18819;BME280;9537;45.594;9.294;2023-03-18T00:03:05;99939.03;;;6.92;62.46
18819;BME280;9537;45.594;9.294;2023-03-18T00:04:06;99932.66;;;6.94;62.26
18819;BME280;9537;45.594;9.294;2023-03-18T00:05:10;99931.97;;;6.92;63.13
18819;BME280;9537;45.594;9.294;2023-03-18T00:06:14;99929.63;;;6.89;62.78
18819;BME280;9537;45.594;9.294;2023-03-18T00:07:18;99934.63;;;6.83;63.47
18819;BME280;9537;45.594;9.294;2023-03-18T00:08:19;99938.06;;;6.83;62.79
18819;BME280;9537;45.594;9.294;2023-03-18T00:09:22;99931.88;;;6.84;62.93
18819;BME280;9537;45.594;9.294;2023-03-18T00:10:25;99932.97;;;6.82;63.26
18819;BME280;9537;45.594;9.294;2023-03-18T00:11:27;99932.69;;;6.75;63.08
18819;BME280;9537;45.594;9.294;2023-03-18T00:12:28;99934.66;;;6.73;63.81
18819;BME280;9537;45.594;9.294;2023-03-18T00:13:31;99930.78;;;6.77;63.40
18819;BME280;9537;45.594;9.294;2023-03-18T00:14:34;99937.81;;;6.76;63.55
18819;BME280;9537;45.594;9.294;2023-03-18T00:15:37;99935.75;;;6.80;63.04
18819;BME280;9537;45.594;9.294;2023-03-18T00:16:38;99936.31;;;6.74;63.61
18819;BME280;9537;45.594;9.294;2023-03-18T00:17:41;99931.88;;;6.74;63.70
18819;BME280;9537;45.594;9.294;2023-03-18T00:18:43;99933.16;;;6.70;63.65
18819;BME280;9537;45.594;9.294;2023-03-18T00:19:45;99931.75;;;6.66;63.33
18819;BME280;9537;45.594;9.294;2023-03-18T00:20:46;99930.81;;;6.67;63.58
18819;BME280;9537;45.594;9.294;2023-03-18T00:21:48;99933.44;;;6.67;63.40
18819;BME280;9537;45.594;9.294;2023-03-18T00:22:50;99935.22;;;6.67;63.08
18819;BME280;9537;45.594;9.294;2023-03-18T00:23:52;99932.72;;;6.65;64.05
18819;BME280;9537;45.594;9.294;2023-03-18T00:24:56;99935.47;;;6.64;63.78
18819;BME280;9537;45.594;9.294;2023-03-18T00:26:01;99935.47;;;6.64;63.56
18819;BME280;9537;45.594;9.294;2023-03-18T00:27:02;99933.56;;;6.66;63.64
18819;BME280;9537;45.594;9.294;2023-03-18T00:28:05;99936.34;;;6.64;63.83
18819;BME280;9537;45.594;9.294;2023-03-18T00:29:07;99936.19;;;6.56;64.08
18819;BME280;9537;45.594;9.294;2023-03-18T00:30:10;99937.44;;;6.62;64.17
18819;BME280;9537;45.594;9.294;2023-03-18T00:31:12;99934.94;;;6.60;64.48
18819;BME280;9537;45.594;9.294;2023-03-18T00:32:15;99932.19;;;6.62;63.70
18819;BME280;9537;45.594;9.294;2023-03-18T00:33:16;99932.75;;;6.56;64.17
18819;BME280;9537;45.594;9.294;2023-03-18T00:34:18;99928.47;;;6.54;64.46
18819;BME280;9537;45.594;9.294;2023-03-18T00:35:20;99925.72;;;6.56;64.65
18819;BME280;9537;45.594;9.294;2023-03-18T00:36:23;99931.06;;;6.54;64.64
18819;BME280;9537;45.594;9.294;2023-03-18T00:37:26;99928.88;;;6.60;64.22
18819;BME280;9537;45.594;9.294;2023-03-18T00:38:31;99920.88;;;6.61;64.09
18819;BME280;9537;45.594;9.294;2023-03-18T00:39:33;99926.13;;;6.61;63.86
18819;BME280;9537;45.594;9.294;2023-03-18T00:40:39;99929.03;;;6.58;64.06
18819;BME280;9537;45.594;9.294;2023-03-18T00:41:55;99929.97;;;6.57;63.96
18819;BME280;9537;45.594;9.294;2023-03-18T00:42:57;99936.03;;;6.58;64.15
18819;BME280;9537;45.594;9.294;2023-03-18T00:44:07;99933.41;;;6.58;63.92
18819;BME280;9537;45.594;9.294;2023-03-18T00:45:10;99934.69;;;6.53;64.21
18819;BME280;9537;45.594;9.294;2023-03-18T00:46:13;99929.97;;;6.57;64.02
18819;BME280;9537;45.594;9.294;2023-03-18T00:47:17;99920.47;;;6.56;64.17
18819;BME280;9537;45.594;9.294;2023-03-18T00:48:18;99925.72;;;6.56;64.49
18819;BME280;9537;45.594;9.294;2023-03-18T00:49:20;99926.41;;;6.48;64.90
18819;BME280;9537;45.594;9.294;2023-03-18T00:50:21;99928.03;;;6.49;64.49
18819;BME280;9537;45.594;9.294;2023-03-18T00:51:25;99928.63;;;6.53;63.98
18819;BME280;9537;45.594;9.294;2023-03-18T00:52:27;99926.28;;;6.50;64.24
18819;BME280;9537;45.594;9.294;2023-03-18T00:53:29;99920.16;;;6.49;64.45
18819;BME280;9537;45.594;9.294;2023-03-18T00:54:30;99925.41;;;6.49;64.43
18819;BME280;9537;45.594;9.294;2023-03-18T00:55:33;99924.47;;;6.50;64.34
18819;BME280;9537;45.594;9.294;2023-03-18T00:56:35;99921.03;;;6.50;64.48
18819;BME280;9537;45.594;9.294;2023-03-18T00:57:40;99920.03;;;6.51;64.21
18819;BME280;9537;45.594;9.294;2023-03-18T00:58:41;99922.94;;;6.48;64.18
18819;BME280;9537;45.594;9.294;2023-03-18T00:59:43;99911.91;;;6.44;64.50
18819;BME280;9537;45.594;9.294;2023-03-18T01:00:44;99918.25;;;6.42;64.21
18819;BME280;9537;45.594;9.294;2023-03-18T01:01:46;99915.34;;;6.35;65.16
18819;BME280;9537;45.594;9.294;2023-03-18T01:02:48;99914.53;;;6.35;64.65
18819;BME280;9537;45.594;9.294;2023-03-18T01:03:51;99912.06;;;6.33;65.13
18819;BME280;9537;45.594;9.294;2023-03-18T01:04:52;99918.25;;;6.32;65.23
18819;BME280;9537;45.594;9.294;2023-03-18T01:05:55;99921.72;;;6.32;65.04
18819;BME280;9537;45.594;9.294;2023-03-18T01:06:57;99914.41;;;6.36;65.15
18819;BME280;9537;45.594;9.294;2023-03-18T01:07:59;99913.28;;;6.39;65.28
18819;BME280;9537;45.594;9.294;2023-03-18T01:09:01;99910.09;;;6.35;64.87
18819;BME280;9537;45.594;9.294;2023-03-18T01:10:05;99914.09;;;6.29;65.43
18819;BME280;9537;45.594;9.294;2023-03-18T01:11:08;99910.13;;;6.25;65.42
18819;BME280;9537;45.594;9.294;2023-03-18T01:12:11;99918.41;;;6.21;65.46
18819;BME280;9537;45.594;9.294;2023-03-18T01:13:14;99913.03;;;6.22;65.64
18819;BME280;9537;45.594;9.294;2023-03-18T01:14:16;99914.28;;;6.18;66.14
18819;BME280;9537;45.594;9.294;2023-03-18T01:15:19;99916.63;;;6.21;65.81
18819;BME280;9537;45.594;9.294;2023-03-18T01:16:22;99910.69;;;6.19;65.52
18819;BME280;9537;45.594;9.294;2023-03-18T01:17:24;99910.69;;;6.19;65.76
18819;BME280;9537;45.594;9.294;2023-03-18T01:18:26;99910.25;;;6.14;65.86
18819;BME280;9537;45.594;9.294;2023-03-18T01:19:29;99904.19;;;6.14;65.96
18819;BME280;9537;45.594;9.294;2023-03-18T01:20:30;99904.72;;;6.17;65.40
18819;BME280;9537;45.594;9.294;2023-03-18T01:21:32;99905.28;;;6.21;65.58
18819;BME280;9537;45.594;9.294;2023-03-18T01:22:33;99903.50;;;6.21;65.45
18819;BME280;9537;45.594;9.294;2023-03-18T01:23:36;99900.72;;;6.23;65.66
18819;BME280;9537;45.594;9.294;2023-03-18T01:24:37;99898.94;;;6.23;65.17
18819;BME280;9537;45.594;9.294;2023-03-18T01:25:39;99905.44;;;6.19;65.47
18819;BME280;9537;45.594;9.294;2023-03-18T01:26:41;99896.16;;;6.15;65.91
18819;BME280;9537;45.594;9.294;2023-03-18T01:27:44;99898.13;;;6.13;65.86
18819;BME280;9537;45.594;9.294;2023-03-18T01:28:46;99900.47;;;6.16;65.66
18819;BME280;9537;45.594;9.294;2023-03-18T01:29:49;99898.66;;;6.17;65.27
18819;BME280;9537;45.594;9.294;2023-03-18T01:30:50;99897.56;;;6.09;65.54
18819;BME280;9537;45.594;9.294;2023-03-18T01:31:52;99894.81;;;6.11;65.50
18819;BME280;9537;45.594;9.294;2023-03-18T01:32:54;99895.19;;;6.06;65.54
18819;BME280;9537;45.594;9.294;2023-03-18T01:37:47;99891.63;;;6.07;65.78
18819;BME280;9537;45.594;9.294;2023-03-18T01:38:48;99890.53;;;6.10;65.92
18819;BME280;9537;45.594;9.294;2023-03-18T01:39:50;99885.00;;;6.03;66.29
18819;BME280;9537;45.594;9.294;2023-03-18T01:40:51;99868.16;;;6.06;65.57
18819;BME280;9537;45.594;9.294;2023-03-18T01:41:54;99880.59;;;6.04;65.36
18819;BME280;9537;45.594;9.294;2023-03-18T01:42:57;99880.31;;;5.97;66.35
18819;BME280;9537;45.594;9.294;2023-03-18T01:44:01;99880.03;;;6.00;65.97
18819;BME280;9537;45.594;9.294;2023-03-18T01:45:16;99882.81;;;5.99;65.65
18819;BME280;9537;45.594;9.294;2023-03-18T01:46:33;99875.75;;;5.99;65.79
18819;BME280;9537;45.594;9.294;2023-03-18T01:47:34;99878.94;;;6.03;66.02
18819;BME280;9537;45.594;9.294;2023-03-18T01:48:37;99877.97;;;6.04;65.79
18819;BME280;9537;45.594;9.294;2023-03-18T01:49:41;99873.97;;;6.00;66.01
18819;BME280;9537;45.594;9.294;2023-03-18T01:50:47;99868.00;;;5.98;65.98
18819;BME280;9537;45.594;9.294;2023-03-18T01:51:52;99875.75;;;5.99;65.99
18819;BME280;9537;45.594;9.294;2023-03-18T01:52:58;99866.91;;;6.00;65.17
18819;BME280;9537;45.594;9.294;2023-03-18T01:54:02;99876.31;;;6.03;65.53
18819;BME280;9537;45.594;9.294;2023-03-18T01:55:10;99862.78;;;5.98;66.00
18819;BME280;9537;45.594;9.294;2023-03-18T01:56:12;99865.25;;;5.90;66.18
18819;BME280;9537;45.594;9.294;2023-03-18T01:57:16;99862.75;;;5.88;66.18
18819;BME280;9537;45.594;9.294;2023-03-18T01:58:20;99861.38;;;5.84;65.85
18819;BME280;9537;45.594;9.294;2023-03-18T01:59:27;99861.22;;;5.85;66.51
18819;BME280;9537;45.594;9.294;2023-03-18T02:00:29;99854.59;;;5.91;66.13
18819;BME280;9537;45.594;9.294;2023-03-18T02:01:35;99855.34;;;5.93;65.58
18819;BME280;9537;45.594;9.294;2023-03-18T02:02:39;99859.59;;;5.84;65.74
18819;BME280;9537;45.594;9.294;2023-03-18T02:03:43;99859.16;;;5.79;66.22
18819;BME280;9537;45.594;9.294;2023-03-18T02:04:47;99859.03;;;5.81;66.63
18819;BME280;9537;45.594;9.294;2023-03-18T02:05:50;99855.00;;;5.86;66.35
18819;BME280;9537;45.594;9.294;2023-03-18T02:06:52;99849.91;;;5.85;66.44
18819;BME280;9537;45.594;9.294;2023-03-18T02:07:53;99860.41;;;5.85;66.55
18819;BME280;9537;45.594;9.294;2023-03-18T02:08:55;99859.44;;;5.86;66.47
18819;BME280;9537;45.594;9.294;2023-03-18T02:09:59;99853.78;;;5.91;66.09
18819;BME280;9537;45.594;9.294;2023-03-18T02:11:02;99860.00;;;5.90;66.10
18819;BME280;9537;45.594;9.294;2023-03-18T02:12:05;99857.38;;;5.90;65.98
18819;BME280;9537;45.594;9.294;2023-03-18T02:13:09;99857.63;;;5.86;66.17
18819;BME280;9537;45.594;9.294;2023-03-18T02:14:13;99848.66;;;5.89;66.65
18819;BME280;9537;45.594;9.294;2023-03-18T02:15:18;99850.47;;;5.88;66.62
18819;BME280;9537;45.594;9.294;2023-03-18T02:16:26;99847.41;;;5.83;66.27
18819;BME280;9537;45.594;9.294;2023-03-18T02:17:29;99841.91;;;5.86;66.22
18819;BME280;9537;45.594;9.294;2023-03-18T02:18:35;99852.28;;;5.78;66.57
18819;BME280;9537;45.594;9.294;2023-03-18T02:19:48;99843.84;;;5.75;66.50
18819;BME280;9537;45.594;9.294;2023-03-18T02:21:04;99843.56;;;5.78;66.58
18819;BME280;9537;45.594;9.294;2023-03-18T02:22:17;99839.16;;;5.69;67.09
18819;BME280;9537;45.594;9.294;2023-03-18T02:23:27;99840.81;;;5.70;67.01
18819;BME280;9537;45.594;9.294;2023-03-18T02:24:37;99840.81;;;5.70;67.06
18819;BME280;9537;45.594;9.294;2023-03-18T02:25:46;99842.75;;;5.68;66.78
18819;BME280;9537;45.594;9.294;2023-03-18T02:26:55;99840.81;;;5.70;67.22
18819;BME280;9537;45.594;9.294;2023-03-18T02:28:01;99838.31;;;5.68;67.14
18819;BME280;9537;45.594;9.294;2023-03-18T02:29:03;99837.78;;;5.74;66.86
18819;BME280;9537;45.594;9.294;2023-03-18T02:30:12;99835.84;;;5.76;66.69
18819;BME280;9537;45.594;9.294;2023-03-18T02:31:14;99829.34;;;5.71;66.74
18819;BME280;9537;45.594;9.294;2023-03-18T02:32:18;99829.47;;;5.69;66.77
18819;BME280;9537;45.594;9.294;2023-03-18T02:33:21;99828.81;;;5.67;66.68
18819;BME280;9537;45.594;9.294;2023-03-18T02:34:25;99828.81;;;5.67;66.58
18819;BME280;9537;45.594;9.294;2023-03-18T02:35:29;99825.38;;;5.67;66.57
18819;BME280;9537;45.594;9.294;2023-03-18T02:36:32;99825.50;;;5.65;67.22
18819;BME280;9537;45.594;9.294;2023-03-18T02:37:33;99827.41;;;5.63;67.16
18819;BME280;9537;45.594;9.294;2023-03-18T02:38:40;99833.34;;;5.65;67.08
18819;BME280;9537;45.594;9.294;2023-03-18T02:39:41;99820.38;;;5.63;67.60
18819;BME280;9537;45.594;9.294;2023-03-18T02:40:43;99831.13;;;5.60;67.17
18819;BME280;9537;45.594;9.294;2023-03-18T02:41:44;99828.13;;;5.55;67.48
18819;BME280;9537;45.594;9.294;2023-03-18T02:42:48;99820.66;;;5.60;67.70
18819;BME280;9537;45.594;9.294;2023-03-18T02:43:51;99825.34;;;5.57;67.26
18819;BME280;9537;45.594;9.294;2023-03-18T02:44:53;99828.25;;;5.54;67.33
18819;BME280;9537;45.594;9.294;2023-03-18T02:46:05;99827.13;;;5.47;67.81
18819;BME280;9537;45.594;9.294;2023-03-18T02:47:11;99827.00;;;5.48;67.53
18819;BME280;9537;45.594;9.294;2023-03-18T02:48:16;99829.34;;;5.51;67.95
18819;BME280;9537;45.594;9.294;2023-03-18T02:49:19;99825.19;;;5.49;67.64
18819;BME280;9537;45.594;9.294;2023-03-18T02:50:21;99826.56;;;5.43;67.53
18819;BME280;9537;45.594;9.294;2023-03-18T02:51:24;99823.28;;;5.41;67.60
18819;BME280;9537;45.594;9.294;2023-03-18T02:52:25;99818.03;;;5.41;67.49
18819;BME280;9537;45.594;9.294;2023-03-18T02:53:28;99826.28;;;5.36;67.92
18819;BME280;9537;45.594;9.294;2023-03-18T02:54:29;99820.94;;;5.38;67.89
18819;BME280;9537;45.594;9.294;2023-03-18T02:55:32;99811.81;;;5.42;67.56
18819;BME280;9537;45.594;9.294;2023-03-18T02:56:33;99806.31;;;5.45;68.07
18819;BME280;9537;45.594;9.294;2023-03-18T02:57:35;99820.22;;;5.46;67.71
18819;BME280;9537;45.594;9.294;2023-03-18T02:58:37;99815.25;;;5.42;67.88
18819;BME280;9537;45.594;9.294;2023-03-18T02:59:40;99813.34;;;5.45;68.13
18819;BME280;9537;45.594;9.294;2023-03-18T03:00:41;99818.44;;;5.46;67.91
18819;BME280;9537;45.594;9.294;2023-03-18T03:01:46;99815.00;;;5.46;67.88
18819;BME280;9537;45.594;9.294;2023-03-18T03:02:48;99819.41;;;5.45;67.89
18819;BME280;9537;45.594;9.294;2023-03-18T03:03:50;99820.34;;;5.34;68.14
18819;BME280;9537;45.594;9.294;2023-03-18T03:04:51;99820.63;;;5.31;68.21
18819;BME280;9537;45.594;9.294;2023-03-18T03:05:54;99816.34;;;5.30;68.36
18819;BME280;9537;45.594;9.294;2023-03-18T03:06:57;99814.94;;;5.26;68.35
18819;BME280;9537;45.594;9.294;2023-03-18T03:08:01;99813.84;;;5.29;68.47
18819;BME280;9537;45.594;9.294;2023-03-18T03:09:03;99815.66;;;5.28;68.42
18819;BME280;9537;45.594;9.294;2023-03-18T03:10:06;99813.03;;;5.28;68.18
18819;BME280;9537;45.594;9.294;2023-03-18T03:11:08;99807.69;;;5.30;68.59
18819;BME280;9537;45.594;9.294;2023-03-18T03:12:11;99810.41;;;5.28;68.77
18819;BME280;9537;45.594;9.294;2023-03-18T03:13:12;99806.59;;;5.32;68.59
18819;BME280;9537;45.594;9.294;2023-03-18T03:14:15;99811.81;;;5.32;68.68
18819;BME280;9537;45.594;9.294;2023-03-18T03:15:18;99802.00;;;5.34;68.32
18819;BME280;9537;45.594;9.294;2023-03-18T03:16:21;99810.69;;;5.35;68.59
18819;BME280;9537;45.594;9.294;2023-03-18T03:17:22;99805.72;;;5.32;68.28
18819;BME280;9537;45.594;9.294;2023-03-18T03:18:24;99806.00;;;5.29;68.07
18819;BME280;9537;45.594;9.294;2023-03-18T03:19:26;99812.75;;;5.31;68.13
18819;BME280;9537;45.594;9.294;2023-03-18T03:20:28;99811.25;;;5.29;68.62
18819;BME280;9537;45.594;9.294;2023-03-18T03:21:32;99814.00;;;5.27;68.05
18819;BME280;9537;45.594;9.294;2023-03-18T03:22:35;99823.06;;;5.23;68.28
18819;BME280;9537;45.594;9.294;2023-03-18T03:23:37;99818.00;;;5.22;68.47
18819;BME280;9537;45.594;9.294;2023-03-18T03:24:40;99811.94;;;5.21;68.00
18819;BME280;9537;45.594;9.294;2023-03-18T03:25:42;99814.66;;;5.19;68.49
18819;BME280;9537;45.594;9.294;2023-03-18T03:26:45;99818.13;;;5.20;68.18
18819;BME280;9537;45.594;9.294;2023-03-18T03:27:46;99818.25;;;5.18;68.69
18819;BME280;9537;45.594;9.294;2023-03-18T03:28:49;99817.28;;;5.19;68.80
18819;BME280;9537;45.594;9.294;2023-03-18T03:29:50;99810.41;;;5.18;68.32
18819;BME280;9537;45.594;9.294;2023-03-18T03:30:55;99812.19;;;5.18;68.25
18819;BME280;9537;45.594;9.294;2023-03-18T03:31:56;99815.50;;;5.20;68.45
18819;BME280;9537;45.594;9.294;2023-03-18T03:32:59;99812.06;;;5.19;68.80
18819;BME280;9537;45.594;9.294;2023-03-18T03:34:01;99813.56;;;5.22;68.34
18819;BME280;9537;45.594;9.294;2023-03-18T03:35:04;99806.28;;;5.26;68.49
18819;BME280;9537;45.594;9.294;2023-03-18T03:36:09;99816.47;;;5.29;68.86
18819;BME280;9537;45.594;9.294;2023-03-18T03:37:11;99817.28;;;5.29;68.45
18819;BME280;9537;45.594;9.294;2023-03-18T03:38:12;99816.47;;;5.29;68.08
18819;BME280;9537;45.594;9.294;2023-03-18T03:39:14;99819.09;;;5.19;69.02
18819;BME280;9537;45.594;9.294;2023-03-18T03:40:17;99822.25;;;5.23;68.67
18819;BME280;9537;45.594;9.294;2023-03-18T03:41:20;99816.19;;;5.22;68.40
18819;BME280;9537;45.594;9.294;2023-03-18T03:42:20;99813.97;;;5.17;68.64
18819;BME280;9537;45.594;9.294;2023-03-18T03:43:23;99814.53;;;5.21;68.24
18819;BME280;9537;45.594;9.294;2023-03-18T03:44:24;99815.09;;;5.25;68.72
18819;BME280;9537;45.594;9.294;2023-03-18T03:45:26;99821.72;;;5.29;68.43
18819;BME280;9537;45.594;9.294;2023-03-18T03:46:28;99813.59;;;5.32;68.39
18819;BME280;9537;45.594;9.294;2023-03-18T03:47:30;99817.88;;;5.33;68.47
18819;BME280;9537;45.594;9.294;2023-03-18T03:48:32;99819.09;;;5.29;68.30
18819;BME280;9537;45.594;9.294;2023-03-18T03:49:34;99816.34;;;5.30;68.32
18819;BME280;9537;45.594;9.294;2023-03-18T03:50:37;99813.59;;;5.32;68.13
18819;BME280;9537;45.594;9.294;2023-03-18T03:51:39;99816.63;;;5.27;67.79
18819;BME280;9537;45.594;9.294;2023-03-18T03:52:41;99809.72;;;5.26;68.17
18819;BME280;9537;45.594;9.294;2023-03-18T03:53:43;99817.72;;;5.25;68.26
18819;BME280;9537;45.594;9.294;2023-03-18T03:54:45;99817.72;;;5.25;67.95
18819;BME280;9537;45.594;9.294;2023-03-18T03:55:50;99808.88;;;5.26;68.22
18819;BME280;9537;45.594;9.294;2023-03-18T03:56:51;99817.84;;;5.23;68.26
18819;BME280;9537;45.594;9.294;2023-03-18T03:57:53;99816.31;;;5.20;68.55
18819;BME280;9537;45.594;9.294;2023-03-18T03:58:54;99809.31;;;5.21;68.35
18819;BME280;9537;45.594;9.294;2023-03-18T03:59:57;99807.91;;;5.17;68.64
18819;BME280;9537;45.594;9.294;2023-03-18T04:00:58;99807.09;;;5.16;68.56
18819;BME280;9537;45.594;9.294;2023-03-18T04:02:02;99816.75;;;5.16;68.67
18819;BME280;9537;45.594;9.294;2023-03-18T04:03:03;99809.97;;;5.13;69.05
18819;BME280;9537;45.594;9.294;2023-03-18T04:04:06;99812.03;;;5.10;68.80
18819;BME280;9537;45.594;9.294;2023-03-18T04:05:07;99816.19;;;5.12;69.17
18819;BME280;9537;45.594;9.294;2023-03-18T04:06:10;99810.19;;;5.01;69.23
18819;BME280;9537;45.594;9.294;2023-03-18T04:07:12;99804.97;;;5.01;69.48
18819;BME280;9537;45.594;9.294;2023-03-18T04:08:15;99803.59;;;4.96;69.16
18819;BME280;9537;45.594;9.294;2023-03-18T04:09:17;99805.22;;;4.97;69.41
18819;BME280;9537;45.594;9.294;2023-03-18T04:10:19;99806.19;;;4.96;69.34
18819;BME280;9537;45.594;9.294;2023-03-18T04:11:22;99805.38;;;4.96;69.08
18819;BME280;9537;45.594;9.294;2023-03-18T04:12:23;99805.94;;;5.00;69.35
18819;BME280;9537;45.594;9.294;2023-03-18T04:13:25;99807.19;;;4.95;69.86
18819;BME280;9537;45.594;9.294;2023-03-18T04:14:27;99801.22;;;4.93;69.53
18819;BME280;9537;45.594;9.294;2023-03-18T04:15:28;99811.41;;;4.87;69.75
18819;BME280;9537;45.594;9.294;2023-03-18T04:16:30;99799.97;;;4.88;69.80
18819;BME280;9537;45.594;9.294;2023-03-18T04:17:33;99802.59;;;4.88;69.78
18819;BME280;9537;45.594;9.294;2023-03-18T04:18:35;99801.63;;;4.89;70.10
18819;BME280;9537;45.594;9.294;2023-03-18T04:19:36;99803.69;;;4.85;70.19
18819;BME280;9537;45.594;9.294;2023-03-18T04:20:39;99803.69;;;4.85;69.63
18819;BME280;9537;45.594;9.294;2023-03-18T04:21:40;99799.41;;;4.84;70.57
18819;BME280;9537;45.594;9.294;2023-03-18T04:22:42;99801.63;;;4.89;70.05
18819;BME280;9537;45.594;9.294;2023-03-18T04:23:43;99803.25;;;4.80;70.38
18819;BME280;9537;45.594;9.294;2023-03-18T04:24:46;99805.59;;;4.83;70.27
18819;BME280;9537;45.594;9.294;2023-03-18T04:25:47;99788.81;;;4.86;70.02
18819;BME280;9537;45.594;9.294;2023-03-18T04:26:49;99794.19;;;4.84;70.14
18819;BME280;9537;45.594;9.294;2023-03-18T04:27:50;99792.94;;;4.88;70.13
18819;BME280;9537;45.594;9.294;2023-03-18T04:28:53;99795.28;;;4.91;69.94
18819;BME280;9537;45.594;9.294;2023-03-18T04:29:54;99791.75;;;4.92;70.03
18819;BME280;9537;45.594;9.294;2023-03-18T04:30:56;99804.50;;;4.86;70.25
18819;BME280;9537;45.594;9.294;2023-03-18T04:31:58;99804.25;;;4.89;70.40
18819;BME280;9537;45.594;9.294;2023-03-18T04:33:01;99796.81;;;4.84;70.37
18819;BME280;9537;45.594;9.294;2023-03-18T04:34:03;99802.16;;;4.83;70.33
18819;BME280;9537;45.594;9.294;2023-03-18T04:35:06;99799.81;;;4.80;70.04
18819;BME280;9537;45.594;9.294;2023-03-18T04:36:07;99795.94;;;4.74;70.50
18819;BME280;9537;45.594;9.294;2023-03-18T04:37:10;99797.44;;;4.77;70.38
18819;BME280;9537;45.594;9.294;2023-03-18T04:38:14;99793.75;;;4.79;70.60
18819;BME280;9537;45.594;9.294;2023-03-18T04:39:15;99793.75;;;4.79;70.34
18819;BME280;9537;45.594;9.294;2023-03-18T04:40:17;99799.69;;;4.81;70.33
18819;BME280;9537;45.594;9.294;2023-03-18T04:41:18;99797.06;;;4.81;70.47
18819;BME280;9537;45.594;9.294;2023-03-18T04:42:20;99792.50;;;4.83;70.44
18819;BME280;9537;45.594;9.294;2023-03-18T04:43:21;99786.34;;;4.84;70.35
18819;BME280;9537;45.594;9.294;2023-03-18T04:44:24;99788.81;;;4.86;70.18
18819;BME280;9537;45.594;9.294;2023-03-18T04:45:25;99778.91;;;4.89;70.41
18819;BME280;9537;45.594;9.294;2023-03-18T04:46:27;99778.66;;;4.92;70.41
18819;BME280;9537;45.594;9.294;2023-03-18T04:47:29;99777.69;;;4.93;70.26
18819;BME280;9537;45.594;9.294;2023-03-18T04:48:33;99778.94;;;4.99;70.41
18819;BME280;9537;45.594;9.294;2023-03-18T04:49:34;99779.06;;;4.97;70.48
18819;BME280;9537;45.594;9.294;2023-03-18T04:50:37;99778.22;;;4.97;70.07
18819;BME280;9537;45.594;9.294;2023-03-18T04:51:38;99779.91;;;4.98;70.33
18819;BME280;9537;45.594;9.294;2023-03-18T04:52:41;99783.47;;;4.97;70.16
18819;BME280;9537;45.594;9.294;2023-03-18T04:53:42;99790.22;;;5.00;70.52
18819;BME280;9537;45.594;9.294;2023-03-18T04:54:44;99787.72;;;4.88;71.10
18819;BME280;9537;45.594;9.294;2023-03-18T04:55:47;99790.88;;;4.92;70.59
18819;BME280;9537;45.594;9.294;2023-03-18T04:56:49;99794.34;;;4.92;70.57
18819;BME280;9537;45.594;9.294;2023-03-18T04:57:50;99794.19;;;4.84;70.59
18819;BME280;9537;45.594;9.294;2023-03-18T04:58:52;99796.91;;;4.83;70.71
18819;BME280;9537;45.594;9.294;2023-03-18T04:59:53;99793.22;;;4.85;70.73
18819;BME280;9537;45.594;9.294;2023-03-18T05:00:56;99785.50;;;4.84;70.73
18819;BME280;9537;45.594;9.294;2023-03-18T05:01:57;99787.28;;;4.83;70.99
18819;BME280;9537;45.594;9.294;2023-03-18T05:02:59;99788.69;;;4.87;70.76
18819;BME280;9537;45.594;9.294;2023-03-18T05:04:03;99787.00;;;4.86;70.73
18819;BME280;9537;45.594;9.294;2023-03-18T05:05:05;99785.38;;;4.85;70.73
18819;BME280;9537;45.594;9.294;2023-03-18T05:06:07;99791.13;;;4.79;70.82
18819;BME280;9537;45.594;9.294;2023-03-18T05:07:17;99791.25;;;4.78;70.85
18819;BME280;9537;45.594;9.294;2023-03-18T05:08:18;99789.03;;;4.73;71.15
18819;BME280;9537;45.594;9.294;2023-03-18T05:09:20;99790.69;;;4.74;71.18
18819;BME280;9537;45.594;9.294;2023-03-18T05:10:21;99792.59;;;4.72;71.36
18819;BME280;9537;45.594;9.294;2023-03-18T05:11:24;99802.13;;;4.73;70.95
18819;BME280;9537;45.594;9.294;2023-03-18T05:12:26;99804.47;;;4.76;71.27
18819;BME280;9537;45.594;9.294;2023-03-18T05:13:28;99798.44;;;4.76;71.22
18819;BME280;9537;45.594;9.294;2023-03-18T05:14:29;99798.44;;;4.76;70.97
18819;BME280;9537;45.594;9.294;2023-03-18T05:15:32;99797.44;;;4.77;71.32
18819;BME280;9537;45.594;9.294;2023-03-18T05:16:33;99794.13;;;4.74;71.20
18819;BME280;9537;45.594;9.294;2023-03-18T05:17:36;99794.56;;;4.80;70.97
18819;BME280;9537;45.594;9.294;2023-03-18T05:18:38;99793.03;;;4.77;71.44
18819;BME280;9537;45.594;9.294;2023-03-18T05:19:43;99796.22;;;4.81;71.11
18819;BME280;9537;45.594;9.294;2023-03-18T05:20:45;99797.47;;;4.86;71.44
18819;BME280;9537;45.594;9.294;2023-03-18T05:21:48;99800.81;;;4.88;71.45
18819;BME280;9537;45.594;9.294;2023-03-18T05:22:49;99791.84;;;4.91;71.56
18819;BME280;9537;45.594;9.294;2023-03-18T05:23:52;99794.19;;;4.94;71.18
18819;BME280;9537;45.594;9.294;2023-03-18T05:24:53;99802.88;;;4.94;71.30
18819;BME280;9537;45.594;9.294;2023-03-18T05:25:55;99794.63;;;4.99;71.59
18819;BME280;9537;45.594;9.294;2023-03-18T05:26:56;99800.44;;;5.03;71.54
18819;BME280;9537;45.594;9.294;2023-03-18T05:27:59;99796.88;;;5.04;71.29
18819;BME280;9537;45.594;9.294;2023-03-18T05:28:59;99791.47;;;5.05;71.46
18819;BME280;9537;45.594;9.294;2023-03-18T05:30:02;99795.75;;;5.06;71.53
18819;BME280;9537;45.594;9.294;2023-03-18T05:31:04;99795.63;;;5.08;71.08
18819;BME280;9537;45.594;9.294;2023-03-18T05:32:08;99794.53;;;5.10;71.13
18819;BME280;9537;45.594;9.294;2023-03-18T05:33:09;99795.47;;;5.09;71.59
18819;BME280;9537;45.594;9.294;2023-03-18T05:34:11;99799.88;;;5.09;71.91
18819;BME280;9537;45.594;9.294;2023-03-18T05:35:14;99799.06;;;5.08;71.35
18819;BME280;9537;45.594;9.294;2023-03-18T05:36:17;99793.84;;;5.08;71.38
18819;BME280;9537;45.594;9.294;2023-03-18T05:37:19;99795.34;;;5.01;71.85
18819;BME280;9537;45.594;9.294;2023-03-18T05:38:21;99794.09;;;4.95;72.37
18819;BME280;9537;45.594;9.294;2023-03-18T05:39:23;99797.66;;;4.94;71.95
18819;BME280;9537;45.594;9.294;2023-03-18T05:40:25;99796.28;;;4.90;72.61
18819;BME280;9537;45.594;9.294;2023-03-18T05:41:26;99803.41;;;4.88;72.85
18819;BME280;9537;45.594;9.294;2023-03-18T05:42:28;99798.06;;;4.90;72.70
18819;BME280;9537;45.594;9.294;2023-03-18T05:43:30;99790.88;;;4.92;72.41
18819;BME280;9537;45.594;9.294;2023-03-18T05:44:32;99791.75;;;4.92;72.33
18819;BME280;9537;45.594;9.294;2023-03-18T05:45:33;99793.78;;;4.89;72.98
18819;BME280;9537;45.594;9.294;2023-03-18T05:46:36;99802.59;;;4.88;72.74